Hlavní strana
METAR-TAF:

METAR-TAF

Letiště :

Laupheim, Německo

zeměpisná šířka: 48-13N, zeměpisná délka: 009-55E, výška: 538 m

Aktuální stav počasí

Zpráva byla vytvořena před 32 minutami, v 21:30 UTC
Jihozápadní vítr 4 kt
Teplota 7°C
Vlhkost vzduchu 76%
Tlak 1029 hPa
Viditelnost 10 km a více
Polojasno ve výšce 6000 ft
Oblačno až skoro zataženo ve výšce 10000 ft

METAR: ETHL 212130Z 23004KT 9999 SCT060 BKN100 07/03 Q1029 BLU FCST CANCEL

Čas: 23:02 (22:02 UTC)

Předpověď počasí

Zpráva byla vytvořena před 1 hodinou a 35 minutami, v 20:27 UTC
Předpověď platná od 21 v 21 UTC do 22 v 06 UTC
Západojihozápadní vítr 5 kt
Viditelnost: 2130 m
Skoro jasno ve výšce 6000 ft
Oblačno až skoro zataženo ve výšce 8000 ft

TAF: ETHL 212027Z 2121/2206 24005KT 9999 NSW FEW060 BKN080 CANCEL 2130

Stav a předpovědi počasí z více než 4 000 letišť (zprávy METAR a TAF).

Červené a žluté tečky na mapě představují dostupné meteorologické stanice.

Když kurzor umístíte na tečku, zobrazí se název stanice.

Pak kliknutím zobrazíte stav a předpověď počasí.

Chcete-li změnit mapu, kliknutím na zelené tlačítko se znaménkem +mapu přiblížíte, kliknutím na zelené tlačítko se znaménkem – mapu oddálíte a kliknutím na zelené šipky přejdete na sousední mapy.


METAR-TAF: